createdAt,value
2023-01-04T00:01:52.183Z,31.50
2023-01-04T00:04:18.663Z,33.47
2023-01-04T00:06:45.166Z,33.42
2023-01-04T00:09:11.637Z,31.10
2023-01-04T00:11:38.165Z,29.25
2023-01-04T00:14:04.752Z,32.22
2023-01-04T00:16:31.625Z,30.52
2023-01-04T00:18:58.863Z,32.05
2023-01-04T00:21:28.014Z,30.02
2023-01-04T00:23:57.314Z,30.00
2023-01-04T00:26:29.877Z,28.95
2023-01-04T00:28:58.438Z,31.23
2023-01-04T00:31:26.209Z,30.23
2023-01-04T00:33:57.807Z,29.45
2023-01-04T00:36:25.490Z,33.85
2023-01-04T00:39:07.910Z,30.58
2023-01-04T00:41:57.971Z,30.35
2023-01-04T00:44:22.583Z,30.50
2023-01-04T00:46:49.151Z,37.30
2023-01-04T00:49:15.768Z,30.23
2023-01-04T00:51:42.703Z,29.42
2023-01-04T00:54:13.368Z,32.65
2023-01-04T00:56:39.938Z,34.22
2023-01-04T00:59:06.573Z,32.67
2023-01-04T01:01:34.286Z,33.67
2023-01-04T01:04:03.246Z,33.42
2023-01-04T01:06:32.321Z,34.85
2023-01-04T01:08:59.660Z,37.17
2023-01-04T01:11:26.710Z,35.88
2023-01-04T01:13:53.467Z,33.97
2023-01-04T01:16:44.351Z,33.30
2023-01-04T01:19:09.689Z,39.10
2023-01-04T01:21:38.007Z,37.38
2023-01-04T01:24:05.355Z,37.90
2023-01-04T01:26:32.064Z,40.47
2023-01-04T01:28:59.487Z,35.67
2023-01-04T01:31:28.043Z,32.40
2023-01-04T01:33:56.963Z,37.58
2023-01-04T01:36:25.627Z,37.60
2023-01-04T01:38:52.327Z,37.25
2023-01-04T01:41:25.736Z,40.00
2023-01-04T01:43:54.052Z,39.85
2023-01-04T01:46:34.191Z,33.53
2023-01-04T01:49:30.200Z,38.58
2023-01-04T01:52:00.025Z,40.65
2023-01-04T01:54:31.464Z,41.60
2023-01-04T01:57:01.223Z,39.80
2023-01-04T01:59:30.132Z,41.00
2023-01-04T02:01:57.188Z,42.30
2023-01-04T02:04:24.126Z,40.10
2023-01-04T02:06:55.216Z,43.60
2023-01-04T02:09:23.285Z,45.30
2023-01-04T02:11:49.864Z,44.72
2023-01-04T02:14:27.489Z,38.95
2023-01-04T02:16:59.989Z,40.10
2023-01-04T02:20:00.690Z,41.78
2023-01-04T02:22:39.153Z,38.90
2023-01-04T02:25:30.735Z,40.25
2023-01-04T02:28:03.015Z,42.60
2023-01-04T02:31:12.766Z,41.80
2023-01-04T02:34:17.057Z,40.10
2023-01-04T02:37:11.952Z,38.50
2023-01-04T02:40:03.799Z,38.65
2023-01-04T02:42:58.803Z,39.08
2023-01-04T02:45:31.606Z,36.58
2023-01-04T02:48:22.759Z,35.70
2023-01-04T02:50:54.254Z,33.65
2023-01-04T02:53:33.515Z,37.65
2023-01-04T02:56:18.454Z,29.80
2023-01-04T02:59:03.818Z,33.28
2023-01-04T03:02:19.274Z,35.80
2023-01-04T03:05:43.566Z,35.10
2023-01-04T03:08:17.129Z,33.42
2023-01-04T03:11:35.744Z,36.03
2023-01-04T03:14:32.390Z,36.53
2023-01-04T03:17:04.581Z,37.72
2023-01-04T03:19:50.715Z,36.42
2023-01-04T03:22:40.547Z,35.03
2023-01-04T03:25:27.518Z,35.17
2023-01-04T03:28:14.037Z,36.63
2023-01-04T03:31:27.022Z,36.65
2023-01-04T03:34:12.195Z,36.17
2023-01-04T03:37:08.166Z,36.03
2023-01-04T03:40:04.625Z,37.72
2023-01-04T03:43:15.865Z,35.90
2023-01-04T03:46:10.406Z,31.58
2023-01-04T03:48:45.761Z,33.30
2023-01-04T03:51:33.910Z,36.58
2023-01-04T03:54:11.860Z,38.47
2023-01-04T03:56:42.257Z,39.13
2023-01-04T03:59:09.790Z,36.00
2023-01-04T04:01:37.415Z,33.60
2023-01-04T04:04:23.014Z,34.40
2023-01-04T04:07:08.300Z,34.63
2023-01-04T04:09:35.439Z,33.85
2023-01-04T04:12:01.936Z,32.90
2023-01-04T04:14:28.532Z,33.05
2023-01-04T04:16:55.172Z,31.10
2023-01-04T04:19:22.194Z,32.03
2023-01-04T04:21:48.707Z,30.17
2023-01-04T04:24:27.353Z,27.50
2023-01-04T04:26:55.394Z,30.88
2023-01-04T04:29:23.326Z,32.10
2023-01-04T04:31:50.218Z,32.28
2023-01-04T04:34:16.762Z,35.53
2023-01-04T04:36:43.416Z,34.10
2023-01-04T04:39:11.429Z,32.75
2023-01-04T04:41:38.936Z,32.45
2023-01-04T04:44:07.069Z,32.00
2023-01-04T04:46:33.574Z,31.25
2023-01-04T04:49:00.700Z,31.35
2023-01-04T04:51:27.477Z,32.15
2023-01-04T04:53:54.209Z,30.27
2023-01-04T04:56:20.919Z,28.92
2023-01-04T04:58:48.263Z,33.30
2023-01-04T05:01:15.583Z,30.08
2023-01-04T05:03:42.245Z,30.38
2023-01-04T05:06:08.826Z,33.10
2023-01-04T05:08:35.969Z,28.88
2023-01-04T05:11:12.861Z,32.08
2023-01-04T05:13:39.988Z,31.98
2023-01-04T05:16:08.210Z,32.80
2023-01-04T05:18:34.986Z,30.23
2023-01-04T05:21:02.752Z,29.13
2023-01-04T05:23:29.316Z,28.13
2023-01-04T05:26:03.741Z,28.35
2023-01-04T05:28:30.296Z,26.77
2023-01-04T05:30:57.254Z,28.10
2023-01-04T05:33:26.605Z,27.33
2023-01-04T05:35:54.359Z,27.10
2023-01-04T05:38:22.047Z,28.92
2023-01-04T05:40:49.148Z,28.42
2023-01-04T05:43:17.260Z,27.08
2023-01-04T05:45:46.984Z,28.63
2023-01-04T05:48:13.529Z,23.88
2023-01-04T05:50:40.110Z,28.10
2023-01-04T05:53:06.901Z,27.23
2023-01-04T05:55:33.882Z,21.85
2023-01-04T05:58:00.958Z,25.13
2023-01-04T06:00:27.700Z,23.38
2023-01-04T06:02:55.597Z,26.30
2023-01-04T06:05:22.635Z,25.15
2023-01-04T06:07:49.536Z,26.58
2023-01-04T06:10:16.388Z,25.60
2023-01-04T06:12:42.938Z,26.27
2023-01-04T06:15:11.265Z,28.08
2023-01-04T06:17:38.968Z,23.35
2023-01-04T06:20:09.561Z,25.95
2023-01-04T06:22:36.835Z,23.83
2023-01-04T06:25:03.985Z,23.58
2023-01-04T06:27:30.503Z,23.25
2023-01-04T06:29:57.100Z,26.35
2023-01-04T06:32:23.655Z,23.17
2023-01-04T06:34:50.259Z,17.90
2023-01-04T06:37:16.801Z,23.20
2023-01-04T06:39:43.410Z,20.30
2023-01-04T06:42:29.923Z,22.38
2023-01-04T06:44:56.497Z,25.00
2023-01-04T06:47:23.009Z,22.75
2023-01-04T06:49:49.606Z,22.40
2023-01-04T06:52:17.250Z,21.15
2023-01-04T06:54:43.781Z,19.08
2023-01-04T06:57:10.268Z,20.95
2023-01-04T06:59:36.740Z,20.23
2023-01-04T07:02:03.423Z,20.60
2023-01-04T07:04:30.099Z,20.38
2023-01-04T07:06:57.876Z,18.15
2023-01-04T07:09:24.417Z,18.33
2023-01-04T07:11:50.939Z,21.20
2023-01-04T07:14:17.439Z,18.13
2023-01-04T07:16:43.978Z,17.67
2023-01-04T07:19:10.529Z,19.80
2023-01-04T07:21:37.122Z,17.95
2023-01-04T07:24:03.703Z,18.67
2023-01-04T07:26:30.230Z,18.38
2023-01-04T07:29:14.737Z,18.05
2023-01-04T07:31:42.345Z,18.42
2023-01-04T07:34:09.166Z,13.15
2023-01-04T07:36:35.817Z,13.70
2023-01-04T07:39:03.083Z,10.82
2023-01-04T07:41:29.623Z,11.25
2023-01-04T07:43:56.149Z,10.23
2023-01-04T07:46:22.764Z,10.52
2023-01-04T07:48:49.270Z,10.68
2023-01-04T07:51:16.272Z,10.70
2023-01-04T07:53:42.742Z,9.80
2023-01-04T07:56:12.411Z,9.80
2023-01-04T07:58:43.411Z,10.90
2023-01-04T08:01:13.339Z,8.73
2023-01-04T08:03:40.200Z,10.95
2023-01-04T08:06:08.899Z,10.23
2023-01-04T08:08:35.611Z,9.65
2023-01-04T08:11:03.393Z,9.18
2023-01-04T08:13:30.380Z,8.82
2023-01-04T08:15:59.805Z,9.38
2023-01-04T08:18:26.382Z,8.80
2023-01-04T08:21:22.260Z,7.35
2023-01-04T08:23:48.820Z,8.50
2023-01-04T08:26:16.464Z,8.98
2023-01-04T08:28:44.081Z,8.85
2023-01-04T08:31:15.976Z,9.27
2023-01-04T08:33:43.133Z,7.93
2023-01-04T08:36:19.594Z,7.97
2023-01-04T08:38:59.934Z,6.18
2023-01-04T08:46:40.445Z,5.57
2023-01-04T08:49:07.111Z,7.82
2023-01-04T08:51:33.714Z,6.78
2023-01-04T08:54:00.199Z,7.18
2023-01-04T08:56:26.681Z,8.25
2023-01-04T08:58:53.212Z,8.15
2023-01-04T09:01:19.800Z,7.00
2023-01-04T09:03:46.455Z,7.68
2023-01-04T09:06:14.962Z,7.10
2023-01-04T09:08:42.813Z,7.90
2023-01-04T09:11:13.678Z,6.85
2023-01-04T09:13:40.607Z,7.78
2023-01-04T09:16:10.232Z,7.28
2023-01-04T09:18:37.012Z,7.97
2023-01-04T09:21:07.866Z,7.28
2023-01-04T09:23:35.005Z,8.50
2023-01-04T09:26:10.015Z,7.50
2023-01-04T09:28:37.351Z,8.20
2023-01-04T09:31:08.669Z,6.50
2023-01-04T09:34:04.109Z,7.95
2023-01-04T09:36:24.026Z,7.15
2023-01-04T09:38:52.276Z,6.05
2023-01-04T09:41:37.959Z,6.88
2023-01-04T09:44:11.464Z,7.77
2023-01-04T09:46:44.665Z,7.35
2023-01-04T09:49:20.311Z,6.80
2023-01-04T09:52:10.687Z,6.07
2023-01-04T09:54:46.590Z,7.30
2023-01-04T09:57:26.039Z,6.53
2023-01-04T10:00:00.129Z,6.38
2023-01-04T10:02:38.786Z,6.22
2023-01-04T10:05:07.055Z,6.10
2023-01-04T10:07:34.572Z,6.30
2023-01-04T10:10:01.616Z,5.93
2023-01-04T10:12:48.125Z,6.05
2023-01-04T10:15:26.321Z,5.40
2023-01-04T10:21:28.301Z,5.15
2023-01-04T10:24:29.316Z,4.93
2023-01-04T10:27:10.154Z,5.57
2023-01-04T10:29:39.836Z,4.85
2023-01-04T10:32:22.619Z,5.28
2023-01-04T10:34:49.211Z,4.80
2023-01-04T10:37:23.645Z,4.40
2023-01-04T10:39:57.337Z,4.13
2023-01-04T10:42:34.401Z,4.28
2023-01-04T10:45:31.926Z,4.05
2023-01-04T10:48:03.523Z,4.28
2023-01-04T10:50:40.195Z,4.22
2023-01-04T10:53:25.982Z,4.15
2023-01-04T10:56:26.154Z,3.53
2023-01-04T10:59:25.662Z,4.00
2023-01-04T11:02:00.377Z,3.88
2023-01-04T11:04:32.463Z,3.65
2023-01-04T11:07:15.856Z,3.58
2023-01-04T11:09:50.477Z,3.55
2023-01-04T11:12:19.699Z,3.53
2023-01-04T11:14:46.180Z,3.30
2023-01-04T11:17:13.115Z,3.70
2023-01-04T11:19:40.772Z,3.60
2023-01-04T11:22:25.809Z,4.28
2023-01-04T11:25:33.899Z,3.33
2023-01-04T11:28:12.281Z,3.50
2023-01-04T11:30:48.843Z,3.08
2023-01-04T11:33:20.885Z,3.33
2023-01-04T11:35:53.354Z,3.53
2023-01-04T11:38:22.179Z,3.20
2023-01-04T11:41:00.883Z,3.20
2023-01-04T11:43:32.252Z,3.30
2023-01-04T11:46:22.723Z,3.08
2023-01-04T11:48:49.269Z,3.30
2023-01-04T11:51:27.621Z,3.10
2023-01-04T11:54:20.524Z,3.22
2023-01-04T11:57:10.745Z,3.22
2023-01-04T11:59:37.904Z,3.13
2023-01-04T12:05:28.920Z,3.17
2023-01-04T12:07:56.017Z,3.40
2023-01-04T12:10:27.298Z,3.70
2023-01-04T12:12:55.400Z,3.55
2023-01-04T12:15:32.441Z,3.63
2023-01-04T12:18:15.601Z,3.10
2023-01-04T12:20:42.078Z,3.67
2023-01-04T12:23:11.974Z,3.70
2023-01-04T12:25:45.419Z,3.80
2023-01-04T12:28:32.561Z,3.20
2023-01-04T12:31:22.011Z,3.90
2023-01-04T12:33:50.169Z,3.95
2023-01-04T12:36:21.516Z,4.00
2023-01-04T12:39:02.202Z,3.60
2023-01-04T12:41:34.794Z,3.80
2023-01-04T12:44:02.989Z,3.63
2023-01-04T12:46:48.225Z,3.90
2023-01-04T12:49:26.631Z,3.47
2023-01-04T12:55:00.680Z,3.70
2023-01-04T12:57:38.054Z,3.30
2023-01-04T13:00:08.402Z,3.63
2023-01-04T13:02:51.307Z,3.72
2023-01-04T13:08:11.226Z,3.67
2023-01-04T13:10:51.642Z,4.55
2023-01-04T13:13:42.041Z,4.03
2023-01-04T13:16:26.880Z,3.70
2023-01-04T13:18:59.766Z,3.50
2023-01-04T13:21:41.589Z,4.55
2023-01-04T13:24:28.556Z,3.97
2023-01-04T13:26:55.255Z,4.40
2023-01-04T13:29:29.155Z,4.10
2023-01-04T13:32:05.944Z,4.10
2023-01-04T13:34:32.429Z,3.78
2023-01-04T13:37:12.358Z,4.10
2023-01-04T13:39:40.459Z,3.70
2023-01-04T13:42:16.210Z,4.22
2023-01-04T13:45:20.851Z,4.40
2023-01-04T13:47:51.209Z,4.72
2023-01-04T13:50:40.181Z,4.00
2023-01-04T13:53:08.727Z,4.13
2023-01-04T13:55:38.359Z,3.78
2023-01-04T13:58:07.745Z,4.10
2023-01-04T14:00:48.586Z,3.80
2023-01-04T14:03:42.921Z,4.20
2023-01-04T14:06:09.454Z,3.85
2023-01-04T14:08:41.702Z,4.10
2023-01-04T14:11:53.358Z,4.20
2023-01-04T14:14:58.947Z,3.40
2023-01-04T14:17:35.745Z,3.67
2023-01-04T14:20:13.110Z,3.83
2023-01-04T14:22:52.609Z,3.88
2023-01-04T14:25:31.270Z,3.67
2023-01-04T14:28:22.227Z,3.60
2023-01-04T14:30:53.224Z,3.85
2023-01-04T14:33:28.560Z,3.83
2023-01-04T14:36:22.777Z,3.77
2023-01-04T14:39:04.346Z,3.75
2023-01-04T14:41:38.659Z,4.00
2023-01-04T14:44:14.533Z,4.25
2023-01-04T14:46:43.682Z,3.60
2023-01-04T14:49:10.466Z,4.00
2023-01-04T14:51:57.375Z,3.83
2023-01-04T14:54:25.855Z,4.32
2023-01-04T14:56:54.013Z,3.92
2023-01-04T14:59:24.132Z,4.07
2023-01-04T15:01:52.132Z,4.35
2023-01-04T15:04:18.865Z,4.50
2023-01-04T15:06:55.216Z,4.10
2023-01-04T15:09:22.309Z,4.35
2023-01-04T15:11:48.850Z,4.75
2023-01-04T15:14:15.641Z,4.60
2023-01-04T15:16:42.579Z,4.45
2023-01-04T15:19:09.529Z,5.70
2023-01-04T15:21:40.812Z,4.95
2023-01-04T15:24:08.075Z,4.90
2023-01-04T15:26:34.610Z,4.63
2023-01-04T15:29:01.205Z,4.63
2023-01-04T15:31:32.362Z,4.75
2023-01-04T15:34:01.624Z,5.60
2023-01-04T15:36:28.130Z,5.13
2023-01-04T15:38:55.438Z,5.38
2023-01-04T15:41:40.244Z,4.90
2023-01-04T15:44:10.076Z,5.10
2023-01-04T15:46:36.781Z,4.78
2023-01-04T15:49:03.505Z,5.68
2023-01-04T15:51:30.039Z,5.10
2023-01-04T15:53:56.844Z,5.28
2023-01-04T15:56:23.520Z,5.15
2023-01-04T15:58:55.112Z,4.85
2023-01-04T16:01:22.318Z,5.10
2023-01-04T16:03:53.522Z,4.72
2023-01-04T16:06:21.547Z,4.00
2023-01-04T16:08:49.747Z,4.97
2023-01-04T16:11:19.370Z,4.25
2023-01-04T16:13:47.894Z,5.15
2023-01-04T16:16:14.943Z,4.70
2023-01-04T16:18:46.287Z,4.97
2023-01-04T16:21:13.435Z,5.22
2023-01-04T16:23:39.950Z,4.95
2023-01-04T16:26:12.647Z,5.05
2023-01-04T16:28:40.416Z,4.63
2023-01-04T16:31:08.356Z,5.60
2023-01-04T16:33:35.973Z,5.40
2023-01-04T16:36:06.088Z,5.35
2023-01-04T16:38:36.232Z,5.80
2023-01-04T16:41:04.208Z,5.30
2023-01-04T16:43:31.056Z,5.30
2023-01-04T16:46:17.191Z,5.75
2023-01-04T16:48:52.744Z,5.63
2023-01-04T16:51:19.621Z,4.90
2023-01-04T16:53:46.456Z,5.63
2023-01-04T16:56:17.099Z,5.68
2023-01-04T16:58:44.771Z,5.40
2023-01-04T17:01:14.848Z,5.97
2023-01-04T17:03:43.011Z,5.45
2023-01-04T17:06:14.098Z,5.90
2023-01-04T17:08:41.492Z,6.20
2023-01-04T17:12:11.532Z,6.15
2023-01-04T17:14:00.567Z,5.90
2023-01-04T17:16:34.261Z,7.18
2023-01-04T17:19:01.407Z,6.18
2023-01-04T17:21:34.646Z,5.50
2023-01-04T17:24:02.419Z,6.18
2023-01-04T17:26:30.841Z,6.05
2023-01-04T17:28:59.082Z,6.57
2023-01-04T17:31:31.805Z,6.95
2023-01-04T17:33:58.446Z,6.15
2023-01-04T17:36:24.997Z,6.00
2023-01-04T17:38:51.662Z,5.90
2023-01-04T17:41:21.496Z,6.22
2023-01-04T17:43:50.456Z,6.07
2023-01-04T17:46:23.123Z,6.50
2023-01-04T17:48:58.978Z,6.00
2023-01-04T17:51:40.278Z,6.25
2023-01-04T17:54:08.412Z,6.28
2023-01-04T17:56:37.209Z,6.03
2023-01-04T17:59:06.866Z,6.30
2023-01-04T18:01:34.769Z,6.30
2023-01-04T18:04:02.523Z,5.80
2023-01-04T18:06:33.092Z,5.90
2023-01-04T18:09:01.114Z,5.60
2023-01-04T18:11:28.198Z,6.68
2023-01-04T18:13:54.840Z,5.65
2023-01-04T18:16:27.637Z,6.07
2023-01-04T18:18:56.256Z,6.18
2023-01-04T18:21:28.881Z,5.72
2023-01-04T18:29:36.057Z,5.63
2023-01-04T18:32:02.692Z,5.65
2023-01-04T18:34:29.368Z,6.45
2023-01-04T18:36:56.005Z,6.18
2023-01-04T18:39:22.665Z,5.63
2023-01-04T18:41:49.174Z,5.60
2023-01-04T18:44:32.635Z,6.05
2023-01-04T18:47:00.783Z,5.55
2023-01-04T18:49:27.327Z,5.53
2023-01-04T18:51:53.939Z,5.63
2023-01-04T18:54:21.645Z,6.00
2023-01-04T18:56:49.033Z,5.75
2023-01-04T18:59:17.493Z,5.80
2023-01-04T19:01:45.633Z,5.40
2023-01-04T19:04:13.064Z,5.82
2023-01-04T19:06:41.040Z,5.35
2023-01-04T19:09:08.233Z,5.50
2023-01-04T19:11:35.957Z,5.53
2023-01-04T19:14:03.581Z,4.85
2023-01-04T19:16:31.668Z,5.75
2023-01-04T19:19:01.994Z,4.53
2023-01-04T19:21:29.139Z,5.10
2023-01-04T19:23:56.077Z,5.47
2023-01-04T19:26:23.097Z,4.85
2023-01-04T19:28:49.881Z,4.80
2023-01-04T19:31:18.339Z,4.47
2023-01-04T19:33:45.813Z,5.07
2023-01-04T19:36:14.188Z,4.60
2023-01-04T19:38:41.340Z,4.90
2023-01-04T19:41:08.945Z,4.30
2023-01-04T19:43:35.646Z,4.43
2023-01-04T19:46:02.422Z,4.43
2023-01-04T19:48:30.842Z,3.90
2023-01-04T19:51:12.989Z,3.92
2023-01-04T19:53:40.131Z,4.10
2023-01-04T19:56:07.918Z,3.65
2023-01-04T19:58:34.834Z,3.72
2023-01-04T20:01:01.422Z,3.92
2023-01-04T20:03:28.237Z,3.80
2023-01-04T20:05:55.431Z,3.47
2023-01-04T20:08:22.536Z,4.20
2023-01-04T20:10:57.518Z,3.83
2023-01-04T20:13:24.174Z,4.05
2023-01-04T20:15:54.327Z,4.10
2023-01-04T20:18:24.006Z,3.88
2023-01-04T20:20:52.216Z,4.00
2023-01-04T20:23:19.740Z,3.67
2023-01-04T20:25:47.974Z,4.07
2023-01-04T20:28:15.858Z,4.00
2023-01-04T20:30:42.564Z,3.65
2023-01-04T20:33:10.115Z,3.78
2023-01-04T20:35:41.662Z,3.70
2023-01-04T20:38:10.012Z,3.70
2023-01-04T20:40:37.395Z,3.75
2023-01-04T20:43:22.811Z,3.38
2023-01-04T20:45:49.508Z,3.67
2023-01-04T20:48:16.286Z,3.30
2023-01-04T20:50:43.042Z,3.22
2023-01-04T20:53:09.781Z,3.40
2023-01-04T20:55:40.762Z,3.15
2023-01-04T20:58:11.237Z,3.67
2023-01-04T21:00:38.774Z,3.20
2023-01-04T21:03:07.249Z,3.22
2023-01-04T21:05:43.082Z,3.15
2023-01-04T21:08:11.131Z,3.13
2023-01-04T21:10:41.116Z,3.20
2023-01-04T21:13:08.280Z,2.90
2023-01-04T21:15:36.908Z,3.10
2023-01-04T21:18:05.794Z,2.90
2023-01-04T21:20:33.033Z,3.10
2023-01-04T21:23:00.034Z,3.10
2023-01-04T21:25:26.833Z,2.90
2023-01-04T21:27:53.471Z,2.88
2023-01-04T21:30:19.985Z,2.80
2023-01-04T21:32:47.944Z,3.08
2023-01-04T21:35:14.443Z,3.00
2023-01-04T21:37:41.021Z,3.08
2023-01-04T21:40:08.056Z,2.95
2023-01-04T21:42:37.284Z,3.00
2023-01-04T21:45:04.435Z,3.20
2023-01-04T21:47:31.760Z,3.20
2023-01-04T21:49:58.277Z,3.40
2023-01-04T21:52:24.969Z,3.20
2023-01-04T21:54:51.740Z,3.55
2023-01-04T21:57:18.716Z,3.10
2023-01-04T21:59:45.345Z,3.40
2023-01-04T22:02:17.300Z,3.58
2023-01-04T22:04:45.229Z,3.30
2023-01-04T22:07:12.120Z,3.53
2023-01-04T22:09:38.797Z,3.75
2023-01-04T22:12:05.941Z,3.70
2023-01-04T22:14:33.053Z,3.80
2023-01-04T22:16:59.624Z,4.00
2023-01-04T22:19:27.132Z,3.53
2023-01-04T22:21:53.663Z,3.90
2023-01-04T22:24:20.262Z,3.83
2023-01-04T22:26:49.281Z,3.45
2023-01-04T22:29:16.324Z,4.00
2023-01-04T22:31:43.058Z,3.53
2023-01-04T22:34:09.788Z,3.50
2023-01-04T22:36:36.310Z,3.40
2023-01-04T22:39:02.876Z,3.17
2023-01-04T22:41:29.533Z,3.45
2023-01-04T22:43:58.248Z,3.53
2023-01-04T22:46:25.921Z,3.35
2023-01-04T22:48:52.760Z,3.30
2023-01-04T22:51:20.767Z,3.10
2023-01-04T22:53:48.341Z,2.95
2023-01-04T22:56:21.045Z,2.97
2023-01-04T22:58:52.845Z,3.10
2023-01-04T23:01:21.238Z,3.00
2023-01-04T23:03:48.637Z,2.80
2023-01-04T23:06:15.616Z,2.60
2023-01-04T23:08:42.336Z,2.65
2023-01-04T23:11:11.721Z,2.50
2023-01-04T23:13:40.991Z,2.38
2023-01-04T23:16:10.429Z,2.47
2023-01-04T23:18:37.232Z,2.40
2023-01-04T23:21:04.737Z,2.35
2023-01-04T23:23:31.918Z,2.40
2023-01-04T23:26:07.393Z,2.60
2023-01-04T23:28:37.219Z,2.40
2023-01-04T23:31:10.047Z,2.28
2023-01-04T23:33:37.258Z,2.55
2023-01-04T23:36:08.652Z,2.50
2023-01-04T23:38:35.214Z,2.33
2023-01-04T23:41:02.035Z,2.50
2023-01-04T23:43:28.757Z,2.45
2023-01-04T23:45:55.359Z,2.72
2023-01-04T23:48:21.965Z,2.28
2023-01-04T23:50:56.647Z,2.03
2023-01-04T23:53:24.275Z,2.00
2023-01-04T23:55:57.317Z,2.00
2023-01-04T23:58:25.247Z,1.92
